sensor_id;sensor_type;location;lat;lon;timestamp;temperature;humidity
16995;DHT22;8614;48.522;9.206;2023-07-31T00:01:42;14.80;99.90
16995;DHT22;8614;48.522;9.206;2023-07-31T00:04:10;14.70;99.90
16995;DHT22;8614;48.522;9.206;2023-07-31T00:06:37;14.60;99.90
16995;DHT22;8614;48.522;9.206;2023-07-31T00:09:04;14.60;99.90
16995;DHT22;8614;48.522;9.206;2023-07-31T00:11:31;14.60;99.90
16995;DHT22;8614;48.522;9.206;2023-07-31T00:13:58;14.50;99.90
16995;DHT22;8614;48.522;9.206;2023-07-31T00:16:24;14.50;99.90
16995;DHT22;8614;48.522;9.206;2023-07-31T00:18:51;14.50;99.90
16995;DHT22;8614;48.522;9.206;2023-07-31T00:21:19;14.50;99.90
16995;DHT22;8614;48.522;9.206;2023-07-31T00:23:46;14.50;99.90
16995;DHT22;8614;48.522;9.206;2023-07-31T00:26:13;14.50;99.90
16995;DHT22;8614;48.522;9.206;2023-07-31T00:28:40;14.50;99.90
16995;DHT22;8614;48.522;9.206;2023-07-31T00:31:06;14.50;99.90
16995;DHT22;8614;48.522;9.206;2023-07-31T00:33:34;14.50;99.90
16995;DHT22;8614;48.522;9.206;2023-07-31T00:36:03;14.50;99.90
16995;DHT22;8614;48.522;9.206;2023-07-31T00:38:31;14.50;99.90
16995;DHT22;8614;48.522;9.206;2023-07-31T00:40:58;14.50;99.90
16995;DHT22;8614;48.522;9.206;2023-07-31T00:43:25;14.50;99.90
16995;DHT22;8614;48.522;9.206;2023-07-31T00:45:52;14.40;99.90
16995;DHT22;8614;48.522;9.206;2023-07-31T00:48:19;14.40;99.90
16995;DHT22;8614;48.522;9.206;2023-07-31T00:50:46;14.30;99.90
16995;DHT22;8614;48.522;9.206;2023-07-31T00:53:14;14.40;99.90
16995;DHT22;8614;48.522;9.206;2023-07-31T00:55:43;14.40;99.90
16995;DHT22;8614;48.522;9.206;2023-07-31T00:58:11;14.30;99.90
16995;DHT22;8614;48.522;9.206;2023-07-31T01:00:38;14.30;99.90
16995;DHT22;8614;48.522;9.206;2023-07-31T01:03:05;14.30;99.90
16995;DHT22;8614;48.522;9.206;2023-07-31T01:05:39;14.30;99.90
16995;DHT22;8614;48.522;9.206;2023-07-31T01:08:12;14.30;99.90
16995;DHT22;8614;48.522;9.206;2023-07-31T01:10:46;14.30;99.90
16995;DHT22;8614;48.522;9.206;2023-07-31T01:13:15;14.30;99.90
16995;DHT22;8614;48.522;9.206;2023-07-31T01:15:44;14.30;99.90
16995;DHT22;8614;48.522;9.206;2023-07-31T01:18:11;14.40;99.90
16995;DHT22;8614;48.522;9.206;2023-07-31T01:20:40;14.30;99.90
16995;DHT22;8614;48.522;9.206;2023-07-31T01:23:35;14.30;99.90
16995;DHT22;8614;48.522;9.206;2023-07-31T01:26:09;14.20;99.90
16995;DHT22;8614;48.522;9.206;2023-07-31T01:28:43;14.10;99.90
16995;DHT22;8614;48.522;9.206;2023-07-31T01:31:16;14.00;99.90
16995;DHT22;8614;48.522;9.206;2023-07-31T01:33:43;13.90;99.90
16995;DHT22;8614;48.522;9.206;2023-07-31T01:36:11;13.90;99.90
16995;DHT22;8614;48.522;9.206;2023-07-31T01:38:39;13.80;99.90
16995;DHT22;8614;48.522;9.206;2023-07-31T01:41:07;13.80;99.90
16995;DHT22;8614;48.522;9.206;2023-07-31T01:43:34;13.80;99.90
16995;DHT22;8614;48.522;9.206;2023-07-31T01:46:00;13.80;99.90
16995;DHT22;8614;48.522;9.206;2023-07-31T01:48:27;13.70;99.90
16995;DHT22;8614;48.522;9.206;2023-07-31T01:50:54;13.70;99.90
16995;DHT22;8614;48.522;9.206;2023-07-31T01:53:21;13.60;99.90
16995;DHT22;8614;48.522;9.206;2023-07-31T01:55:48;13.70;99.90
16995;DHT22;8614;48.522;9.206;2023-07-31T01:58:16;13.70;99.90
16995;DHT22;8614;48.522;9.206;2023-07-31T02:00:43;13.70;99.90
16995;DHT22;8614;48.522;9.206;2023-07-31T02:03:10;13.70;99.90
16995;DHT22;8614;48.522;9.206;2023-07-31T02:05:36;13.70;99.90
16995;DHT22;8614;48.522;9.206;2023-07-31T02:08:10;13.70;99.90
16995;DHT22;8614;48.522;9.206;2023-07-31T02:10:36;13.70;99.90
16995;DHT22;8614;48.522;9.206;2023-07-31T02:13:04;13.70;99.90
16995;DHT22;8614;48.522;9.206;2023-07-31T02:15:33;13.70;99.90
16995;DHT22;8614;48.522;9.206;2023-07-31T02:17:59;13.70;99.90
16995;DHT22;8614;48.522;9.206;2023-07-31T02:20:26;13.70;99.90
16995;DHT22;8614;48.522;9.206;2023-07-31T02:22:53;13.70;99.90
16995;DHT22;8614;48.522;9.206;2023-07-31T02:25:20;13.70;99.90
16995;DHT22;8614;48.522;9.206;2023-07-31T02:27:47;13.70;99.90
16995;DHT22;8614;48.522;9.206;2023-07-31T02:30:15;13.70;99.90
16995;DHT22;8614;48.522;9.206;2023-07-31T02:32:43;13.70;99.90
16995;DHT22;8614;48.522;9.206;2023-07-31T02:35:10;13.70;99.90
16995;DHT22;8614;48.522;9.206;2023-07-31T02:37:41;13.70;99.90
16995;DHT22;8614;48.522;9.206;2023-07-31T02:40:09;13.70;99.90
16995;DHT22;8614;48.522;9.206;2023-07-31T02:42:36;13.60;99.90
16995;DHT22;8614;48.522;9.206;2023-07-31T02:45:03;13.60;99.90
16995;DHT22;8614;48.522;9.206;2023-07-31T02:47:30;13.70;99.90
16995;DHT22;8614;48.522;9.206;2023-07-31T02:49:58;13.70;99.90
16995;DHT22;8614;48.522;9.206;2023-07-31T02:52:25;13.70;99.90
16995;DHT22;8614;48.522;9.206;2023-07-31T02:54:52;13.70;99.90
16995;DHT22;8614;48.522;9.206;2023-07-31T02:57:19;13.60;99.90
16995;DHT22;8614;48.522;9.206;2023-07-31T02:59:46;13.60;99.90
16995;DHT22;8614;48.522;9.206;2023-07-31T03:02:13;13.60;99.90
16995;DHT22;8614;48.522;9.206;2023-07-31T03:04:40;13.60;99.90
16995;DHT22;8614;48.522;9.206;2023-07-31T03:07:08;13.50;99.90
16995;DHT22;8614;48.522;9.206;2023-07-31T03:09:35;13.40;99.90
16995;DHT22;8614;48.522;9.206;2023-07-31T03:12:02;13.30;99.90
16995;DHT22;8614;48.522;9.206;2023-07-31T03:14:29;13.30;99.90
16995;DHT22;8614;48.522;9.206;2023-07-31T03:16:56;13.20;99.90
16995;DHT22;8614;48.522;9.206;2023-07-31T03:19:23;13.20;99.90
16995;DHT22;8614;48.522;9.206;2023-07-31T03:21:50;13.10;99.90
16995;DHT22;8614;48.522;9.206;2023-07-31T03:24:18;13.00;99.90
16995;DHT22;8614;48.522;9.206;2023-07-31T03:26:45;13.00;99.90
16995;DHT22;8614;48.522;9.206;2023-07-31T03:29:12;13.00;99.90
16995;DHT22;8614;48.522;9.206;2023-07-31T03:31:38;13.00;99.90
16995;DHT22;8614;48.522;9.206;2023-07-31T03:34:05;13.00;99.90
16995;DHT22;8614;48.522;9.206;2023-07-31T03:36:35;13.00;99.90
16995;DHT22;8614;48.522;9.206;2023-07-31T03:39:02;13.00;99.90
16995;DHT22;8614;48.522;9.206;2023-07-31T03:41:31;13.00;99.90
16995;DHT22;8614;48.522;9.206;2023-07-31T03:43:58;13.00;99.90
16995;DHT22;8614;48.522;9.206;2023-07-31T03:46:25;13.00;99.90
16995;DHT22;8614;48.522;9.206;2023-07-31T03:48:52;13.10;99.90
16995;DHT22;8614;48.522;9.206;2023-07-31T03:51:19;13.10;99.90
16995;DHT22;8614;48.522;9.206;2023-07-31T03:53:45;13.10;99.90
16995;DHT22;8614;48.522;9.206;2023-07-31T03:56:13;13.10;99.90
16995;DHT22;8614;48.522;9.206;2023-07-31T03:58:41;13.20;99.90
16995;DHT22;8614;48.522;9.206;2023-07-31T04:01:08;13.20;99.90
16995;DHT22;8614;48.522;9.206;2023-07-31T04:03:35;13.10;99.90
16995;DHT22;8614;48.522;9.206;2023-07-31T04:06:02;13.20;99.90
16995;DHT22;8614;48.522;9.206;2023-07-31T04:08:29;13.10;99.90
16995;DHT22;8614;48.522;9.206;2023-07-31T04:10:55;13.20;99.90
16995;DHT22;8614;48.522;9.206;2023-07-31T04:13:22;13.20;99.90
16995;DHT22;8614;48.522;9.206;2023-07-31T04:15:50;13.30;99.90
16995;DHT22;8614;48.522;9.206;2023-07-31T04:18:17;13.40;99.90
16995;DHT22;8614;48.522;9.206;2023-07-31T04:20:44;13.50;99.90
16995;DHT22;8614;48.522;9.206;2023-07-31T04:23:11;13.60;99.90
16995;DHT22;8614;48.522;9.206;2023-07-31T04:25:38;13.70;99.90
16995;DHT22;8614;48.522;9.206;2023-07-31T04:28:05;13.80;99.90
16995;DHT22;8614;48.522;9.206;2023-07-31T04:30:33;13.90;99.90
16995;DHT22;8614;48.522;9.206;2023-07-31T04:33:01;13.90;99.90
16995;DHT22;8614;48.522;9.206;2023-07-31T04:35:27;14.00;99.90
16995;DHT22;8614;48.522;9.206;2023-07-31T04:37:54;14.10;99.90
16995;DHT22;8614;48.522;9.206;2023-07-31T04:40:21;14.10;99.90
16995;DHT22;8614;48.522;9.206;2023-07-31T04:42:48;14.20;99.90
16995;DHT22;8614;48.522;9.206;2023-07-31T04:45:15;14.30;99.90
16995;DHT22;8614;48.522;9.206;2023-07-31T04:47:42;14.40;99.90
16995;DHT22;8614;48.522;9.206;2023-07-31T04:50:10;14.40;99.90
16995;DHT22;8614;48.522;9.206;2023-07-31T04:52:37;14.50;99.90
16995;DHT22;8614;48.522;9.206;2023-07-31T04:55:04;14.60;99.90
16995;DHT22;8614;48.522;9.206;2023-07-31T04:57:31;14.70;99.90
16995;DHT22;8614;48.522;9.206;2023-07-31T04:59:58;14.70;99.90
16995;DHT22;8614;48.522;9.206;2023-07-31T05:02:24;14.70;99.90
16995;DHT22;8614;48.522;9.206;2023-07-31T05:04:51;14.80;99.90
16995;DHT22;8614;48.522;9.206;2023-07-31T05:07:19;14.80;99.90
16995;DHT22;8614;48.522;9.206;2023-07-31T05:09:46;14.90;99.90
16995;DHT22;8614;48.522;9.206;2023-07-31T05:12:13;14.80;99.90
16995;DHT22;8614;48.522;9.206;2023-07-31T05:14:40;14.90;99.90
16995;DHT22;8614;48.522;9.206;2023-07-31T05:17:06;15.00;99.90
16995;DHT22;8614;48.522;9.206;2023-07-31T05:19:33;15.00;99.90
16995;DHT22;8614;48.522;9.206;2023-07-31T05:22:00;15.10;99.90
16995;DHT22;8614;48.522;9.206;2023-07-31T05:24:28;15.20;99.90
16995;DHT22;8614;48.522;9.206;2023-07-31T05:26:55;15.20;99.90
16995;DHT22;8614;48.522;9.206;2023-07-31T05:29:22;15.20;99.90
16995;DHT22;8614;48.522;9.206;2023-07-31T05:31:48;15.30;99.90
16995;DHT22;8614;48.522;9.206;2023-07-31T05:34:15;15.40;99.90
16995;DHT22;8614;48.522;9.206;2023-07-31T05:36:42;15.50;99.90
16995;DHT22;8614;48.522;9.206;2023-07-31T05:39:09;15.60;99.90
16995;DHT22;8614;48.522;9.206;2023-07-31T05:41:37;15.80;99.90
16995;DHT22;8614;48.522;9.206;2023-07-31T05:44:04;15.90;99.90
16995;DHT22;8614;48.522;9.206;2023-07-31T05:46:30;16.10;99.90
16995;DHT22;8614;48.522;9.206;2023-07-31T05:48:58;16.20;99.90
16995;DHT22;8614;48.522;9.206;2023-07-31T05:51:26;16.30;99.90
16995;DHT22;8614;48.522;9.206;2023-07-31T05:53:53;16.40;99.90
16995;DHT22;8614;48.522;9.206;2023-07-31T05:56:20;16.40;99.90
16995;DHT22;8614;48.522;9.206;2023-07-31T05:58:48;16.50;99.90
16995;DHT22;8614;48.522;9.206;2023-07-31T06:01:16;16.60;99.90
16995;DHT22;8614;48.522;9.206;2023-07-31T06:03:43;16.80;99.90
16995;DHT22;8614;48.522;9.206;2023-07-31T06:06:10;16.90;99.90
16995;DHT22;8614;48.522;9.206;2023-07-31T06:08:37;16.90;99.90
16995;DHT22;8614;48.522;9.206;2023-07-31T06:11:04;17.10;99.90
16995;DHT22;8614;48.522;9.206;2023-07-31T06:13:31;17.10;99.90
16995;DHT22;8614;48.522;9.206;2023-07-31T06:15:59;17.20;99.90
16995;DHT22;8614;48.522;9.206;2023-07-31T06:18:28;17.20;99.90
16995;DHT22;8614;48.522;9.206;2023-07-31T06:20:55;17.20;99.90
16995;DHT22;8614;48.522;9.206;2023-07-31T06:23:22;17.20;99.90
16995;DHT22;8614;48.522;9.206;2023-07-31T06:25:48;17.20;99.90
16995;DHT22;8614;48.522;9.206;2023-07-31T06:28:15;17.20;99.90
16995;DHT22;8614;48.522;9.206;2023-07-31T06:30:42;17.20;99.90
16995;DHT22;8614;48.522;9.206;2023-07-31T06:33:10;17.20;99.90
16995;DHT22;8614;48.522;9.206;2023-07-31T06:35:37;17.20;99.90
16995;DHT22;8614;48.522;9.206;2023-07-31T06:38:04;17.20;99.90
16995;DHT22;8614;48.522;9.206;2023-07-31T06:40:30;17.30;99.90
16995;DHT22;8614;48.522;9.206;2023-07-31T06:42:57;17.60;99.90
16995;DHT22;8614;48.522;9.206;2023-07-31T06:45:24;18.10;99.90
16995;DHT22;8614;48.522;9.206;2023-07-31T06:47:51;18.40;99.90
16995;DHT22;8614;48.522;9.206;2023-07-31T06:50:19;19.10;99.90
16995;DHT22;8614;48.522;9.206;2023-07-31T06:52:46;20.10;99.90
16995;DHT22;8614;48.522;9.206;2023-07-31T06:55:17;20.60;99.90
16995;DHT22;8614;48.522;9.206;2023-07-31T06:57:44;20.90;99.90
16995;DHT22;8614;48.522;9.206;2023-07-31T07:00:12;21.30;99.90
16995;DHT22;8614;48.522;9.206;2023-07-31T07:02:39;21.30;99.90
16995;DHT22;8614;48.522;9.206;2023-07-31T07:05:06;21.50;99.90
16995;DHT22;8614;48.522;9.206;2023-07-31T07:07:35;21.60;99.90
16995;DHT22;8614;48.522;9.206;2023-07-31T07:10:03;21.60;99.90
16995;DHT22;8614;48.522;9.206;2023-07-31T07:12:31;21.60;99.90
16995;DHT22;8614;48.522;9.206;2023-07-31T07:14:58;21.20;99.90
16995;DHT22;8614;48.522;9.206;2023-07-31T07:17:26;21.00;99.90
16995;DHT22;8614;48.522;9.206;2023-07-31T07:19:53;21.10;99.90
16995;DHT22;8614;48.522;9.206;2023-07-31T07:22:21;21.10;99.90
16995;DHT22;8614;48.522;9.206;2023-07-31T07:24:49;21.30;99.90
16995;DHT22;8614;48.522;9.206;2023-07-31T07:27:16;21.50;99.90
16995;DHT22;8614;48.522;9.206;2023-07-31T07:29:43;21.60;99.90
16995;DHT22;8614;48.522;9.206;2023-07-31T07:32:10;21.90;99.90
16995;DHT22;8614;48.522;9.206;2023-07-31T07:34:37;21.90;99.90
16995;DHT22;8614;48.522;9.206;2023-07-31T07:37:05;22.00;99.90
16995;DHT22;8614;48.522;9.206;2023-07-31T07:39:31;22.20;99.90
16995;DHT22;8614;48.522;9.206;2023-07-31T07:42:00;22.30;99.90
16995;DHT22;8614;48.522;9.206;2023-07-31T07:44:26;22.30;99.90
16995;DHT22;8614;48.522;9.206;2023-07-31T07:46:53;22.10;99.90
16995;DHT22;8614;48.522;9.206;2023-07-31T07:49:20;22.20;99.90
16995;DHT22;8614;48.522;9.206;2023-07-31T07:51:48;22.10;99.90
16995;DHT22;8614;48.522;9.206;2023-07-31T07:54:15;22.00;99.90
16995;DHT22;8614;48.522;9.206;2023-07-31T07:56:43;22.00;99.90
16995;DHT22;8614;48.522;9.206;2023-07-31T07:59:11;22.20;99.90
16995;DHT22;8614;48.522;9.206;2023-07-31T08:01:38;22.60;99.90
16995;DHT22;8614;48.522;9.206;2023-07-31T08:04:04;23.50;99.90
16995;DHT22;8614;48.522;9.206;2023-07-31T08:06:31;24.20;99.90
16995;DHT22;8614;48.522;9.206;2023-07-31T08:08:59;24.50;99.90
16995;DHT22;8614;48.522;9.206;2023-07-31T08:11:30;24.50;99.90
16995;DHT22;8614;48.522;9.206;2023-07-31T08:13:57;24.70;99.90
16995;DHT22;8614;48.522;9.206;2023-07-31T08:16:25;24.90;99.90
16995;DHT22;8614;48.522;9.206;2023-07-31T08:18:52;25.10;99.90
16995;DHT22;8614;48.522;9.206;2023-07-31T08:21:19;24.70;99.90
16995;DHT22;8614;48.522;9.206;2023-07-31T08:23:46;24.90;99.90
16995;DHT22;8614;48.522;9.206;2023-07-31T08:26:15;25.30;99.90
16995;DHT22;8614;48.522;9.206;2023-07-31T08:28:42;25.60;99.90
16995;DHT22;8614;48.522;9.206;2023-07-31T08:31:09;25.90;99.90
16995;DHT22;8614;48.522;9.206;2023-07-31T08:33:37;26.10;99.90
16995;DHT22;8614;48.522;9.206;2023-07-31T08:36:04;25.70;99.90
16995;DHT22;8614;48.522;9.206;2023-07-31T08:38:31;25.30;99.90
16995;DHT22;8614;48.522;9.206;2023-07-31T08:40:58;25.40;99.90
16995;DHT22;8614;48.522;9.206;2023-07-31T08:43:26;25.80;99.90
16995;DHT22;8614;48.522;9.206;2023-07-31T08:45:53;26.20;99.90
16995;DHT22;8614;48.522;9.206;2023-07-31T08:48:22;26.80;99.90
16995;DHT22;8614;48.522;9.206;2023-07-31T08:50:51;27.60;99.90
16995;DHT22;8614;48.522;9.206;2023-07-31T08:53:18;28.00;99.90
16995;DHT22;8614;48.522;9.206;2023-07-31T08:55:46;28.00;99.90
16995;DHT22;8614;48.522;9.206;2023-07-31T08:58:15;27.70;99.90
16995;DHT22;8614;48.522;9.206;2023-07-31T09:00:43;27.40;99.90
16995;DHT22;8614;48.522;9.206;2023-07-31T09:03:13;27.60;99.90
16995;DHT22;8614;48.522;9.206;2023-07-31T09:05:43;27.90;99.90
16995;DHT22;8614;48.522;9.206;2023-07-31T09:08:12;28.00;99.90
16995;DHT22;8614;48.522;9.206;2023-07-31T09:10:43;27.80;99.90
16995;DHT22;8614;48.522;9.206;2023-07-31T09:13:11;27.70;99.90
16995;DHT22;8614;48.522;9.206;2023-07-31T09:15:39;27.30;99.90
16995;DHT22;8614;48.522;9.206;2023-07-31T09:18:07;26.80;99.90
16995;DHT22;8614;48.522;9.206;2023-07-31T09:20:34;26.40;99.90
16995;DHT22;8614;48.522;9.206;2023-07-31T09:23:07;25.60;99.90
16995;DHT22;8614;48.522;9.206;2023-07-31T09:25:37;25.80;99.90
16995;DHT22;8614;48.522;9.206;2023-07-31T09:28:05;26.50;99.90
16995;DHT22;8614;48.522;9.206;2023-07-31T09:30:45;27.00;99.90
16995;DHT22;8614;48.522;9.206;2023-07-31T09:33:12;27.80;99.90
16995;DHT22;8614;48.522;9.206;2023-07-31T09:35:39;27.90;99.90
16995;DHT22;8614;48.522;9.206;2023-07-31T09:38:08;27.50;99.90
16995;DHT22;8614;48.522;9.206;2023-07-31T09:40:38;27.40;99.90
16995;DHT22;8614;48.522;9.206;2023-07-31T09:43:06;27.40;99.90
16995;DHT22;8614;48.522;9.206;2023-07-31T09:45:35;26.90;99.90
16995;DHT22;8614;48.522;9.206;2023-07-31T09:48:03;26.60;99.90
16995;DHT22;8614;48.522;9.206;2023-07-31T09:50:36;26.30;99.90
16995;DHT22;8614;48.522;9.206;2023-07-31T09:53:03;26.20;99.90
16995;DHT22;8614;48.522;9.206;2023-07-31T09:55:30;26.00;99.90
16995;DHT22;8614;48.522;9.206;2023-07-31T09:58:00;25.90;99.90
16995;DHT22;8614;48.522;9.206;2023-07-31T10:00:30;25.80;99.90
16995;DHT22;8614;48.522;9.206;2023-07-31T10:02:58;25.60;99.90
16995;DHT22;8614;48.522;9.206;2023-07-31T10:05:30;25.60;99.90
16995;DHT22;8614;48.522;9.206;2023-07-31T10:07:58;26.00;99.90
16995;DHT22;8614;48.522;9.206;2023-07-31T10:10:25;26.10;99.90
16995;DHT22;8614;48.522;9.206;2023-07-31T10:12:53;26.30;99.90
16995;DHT22;8614;48.522;9.206;2023-07-31T10:15:22;26.50;99.90
16995;DHT22;8614;48.522;9.206;2023-07-31T10:17:50;26.70;99.90
16995;DHT22;8614;48.522;9.206;2023-07-31T10:20:17;27.00;99.90
16995;DHT22;8614;48.522;9.206;2023-07-31T10:22:44;27.10;99.90
16995;DHT22;8614;48.522;9.206;2023-07-31T10:25:12;26.60;99.90
16995;DHT22;8614;48.522;9.206;2023-07-31T10:27:39;26.50;99.90
16995;DHT22;8614;48.522;9.206;2023-07-31T10:30:09;26.60;99.90
16995;DHT22;8614;48.522;9.206;2023-07-31T10:32:38;26.50;99.90
16995;DHT22;8614;48.522;9.206;2023-07-31T10:35:07;26.60;99.90
16995;DHT22;8614;48.522;9.206;2023-07-31T10:37:37;26.70;99.90
16995;DHT22;8614;48.522;9.206;2023-07-31T10:40:06;26.80;99.90
16995;DHT22;8614;48.522;9.206;2023-07-31T10:42:34;26.70;99.90
16995;DHT22;8614;48.522;9.206;2023-07-31T10:45:03;26.60;99.90
16995;DHT22;8614;48.522;9.206;2023-07-31T10:47:30;26.60;99.90
16995;DHT22;8614;48.522;9.206;2023-07-31T10:50:17;26.60;99.90
16995;DHT22;8614;48.522;9.206;2023-07-31T10:52:47;26.60;99.90
16995;DHT22;8614;48.522;9.206;2023-07-31T10:55:25;26.50;99.90
16995;DHT22;8614;48.522;9.206;2023-07-31T10:57:53;26.70;99.90
16995;DHT22;8614;48.522;9.206;2023-07-31T11:00:22;26.90;99.90
16995;DHT22;8614;48.522;9.206;2023-07-31T11:03:04;27.10;99.90
16995;DHT22;8614;48.522;9.206;2023-07-31T11:05:44;27.30;99.90
16995;DHT22;8614;48.522;9.206;2023-07-31T11:08:13;27.50;99.90
16995;DHT22;8614;48.522;9.206;2023-07-31T11:10:40;27.60;99.90
16995;DHT22;8614;48.522;9.206;2023-07-31T11:13:07;27.50;99.90
16995;DHT22;8614;48.522;9.206;2023-07-31T11:15:34;27.60;99.90
16995;DHT22;8614;48.522;9.206;2023-07-31T11:18:01;27.60;99.90
16995;DHT22;8614;48.522;9.206;2023-07-31T11:20:31;27.70;99.90
16995;DHT22;8614;48.522;9.206;2023-07-31T11:23:00;28.10;99.90
16995;DHT22;8614;48.522;9.206;2023-07-31T11:25:29;27.90;99.90
16995;DHT22;8614;48.522;9.206;2023-07-31T11:27:57;27.60;99.90
16995;DHT22;8614;48.522;9.206;2023-07-31T11:30:23;27.60;99.90
16995;DHT22;8614;48.522;9.206;2023-07-31T11:32:50;27.40;99.90
16995;DHT22;8614;48.522;9.206;2023-07-31T11:35:17;27.40;99.90
16995;DHT22;8614;48.522;9.206;2023-07-31T11:37:44;27.50;99.90
16995;DHT22;8614;48.522;9.206;2023-07-31T11:40:13;27.50;99.90
16995;DHT22;8614;48.522;9.206;2023-07-31T11:42:40;27.60;99.90
16995;DHT22;8614;48.522;9.206;2023-07-31T11:45:08;27.80;99.90
16995;DHT22;8614;48.522;9.206;2023-07-31T11:47:36;28.10;99.90
16995;DHT22;8614;48.522;9.206;2023-07-31T11:50:05;28.40;99.90
16995;DHT22;8614;48.522;9.206;2023-07-31T11:52:36;28.30;99.90
16995;DHT22;8614;48.522;9.206;2023-07-31T11:55:05;28.30;99.90
16995;DHT22;8614;48.522;9.206;2023-07-31T11:57:37;27.80;99.90
16995;DHT22;8614;48.522;9.206;2023-07-31T12:00:06;27.50;99.90
16995;DHT22;8614;48.522;9.206;2023-07-31T12:02:34;27.30;99.90
16995;DHT22;8614;48.522;9.206;2023-07-31T12:05:01;27.30;99.90
16995;DHT22;8614;48.522;9.206;2023-07-31T12:07:43;27.20;99.90
16995;DHT22;8614;48.522;9.206;2023-07-31T12:10:10;27.10;99.90
16995;DHT22;8614;48.522;9.206;2023-07-31T12:12:38;26.80;99.90
16995;DHT22;8614;48.522;9.206;2023-07-31T12:15:14;26.50;99.90
16995;DHT22;8614;48.522;9.206;2023-07-31T12:17:41;26.10;99.90
16995;DHT22;8614;48.522;9.206;2023-07-31T12:20:09;25.80;99.90
16995;DHT22;8614;48.522;9.206;2023-07-31T12:22:36;25.60;99.90
16995;DHT22;8614;48.522;9.206;2023-07-31T12:25:03;25.30;99.90
16995;DHT22;8614;48.522;9.206;2023-07-31T12:27:33;25.20;99.90
16995;DHT22;8614;48.522;9.206;2023-07-31T12:30:01;25.00;99.90
16995;DHT22;8614;48.522;9.206;2023-07-31T12:32:30;25.10;99.90
16995;DHT22;8614;48.522;9.206;2023-07-31T12:34:59;25.10;99.90
16995;DHT22;8614;48.522;9.206;2023-07-31T12:37:28;25.00;99.90
16995;DHT22;8614;48.522;9.206;2023-07-31T12:39:55;25.10;99.90
16995;DHT22;8614;48.522;9.206;2023-07-31T12:42:26;25.10;99.90
16995;DHT22;8614;48.522;9.206;2023-07-31T12:44:53;25.10;99.90
16995;DHT22;8614;48.522;9.206;2023-07-31T12:47:21;25.20;99.90
16995;DHT22;8614;48.522;9.206;2023-07-31T12:49:48;25.40;99.90
16995;DHT22;8614;48.522;9.206;2023-07-31T12:52:15;25.80;99.90
16995;DHT22;8614;48.522;9.206;2023-07-31T12:54:41;26.20;99.90
16995;DHT22;8614;48.522;9.206;2023-07-31T12:57:08;26.50;99.90
16995;DHT22;8614;48.522;9.206;2023-07-31T12:59:35;26.50;99.90
16995;DHT22;8614;48.522;9.206;2023-07-31T13:02:02;26.50;99.90
16995;DHT22;8614;48.522;9.206;2023-07-31T13:04:30;26.50;99.90
16995;DHT22;8614;48.522;9.206;2023-07-31T13:06:57;26.30;99.90
16995;DHT22;8614;48.522;9.206;2023-07-31T13:09:24;26.30;99.90
16995;DHT22;8614;48.522;9.206;2023-07-31T13:11:50;26.60;99.90
16995;DHT22;8614;48.522;9.206;2023-07-31T13:14:17;26.60;99.90
16995;DHT22;8614;48.522;9.206;2023-07-31T13:16:44;26.70;99.90
16995;DHT22;8614;48.522;9.206;2023-07-31T13:19:11;26.60;99.90
16995;DHT22;8614;48.522;9.206;2023-07-31T13:21:39;26.40;99.90
16995;DHT22;8614;48.522;9.206;2023-07-31T13:24:06;26.50;99.90
16995;DHT22;8614;48.522;9.206;2023-07-31T13:26:32;26.50;99.90
16995;DHT22;8614;48.522;9.206;2023-07-31T13:28:59;26.60;99.90
16995;DHT22;8614;48.522;9.206;2023-07-31T13:31:26;26.50;99.90
16995;DHT22;8614;48.522;9.206;2023-07-31T13:33:53;26.50;99.90
16995;DHT22;8614;48.522;9.206;2023-07-31T13:36:20;26.40;99.90
16995;DHT22;8614;48.522;9.206;2023-07-31T13:38:48;26.50;99.90
16995;DHT22;8614;48.522;9.206;2023-07-31T13:41:15;26.40;99.90
16995;DHT22;8614;48.522;9.206;2023-07-31T13:43:41;26.30;99.90
16995;DHT22;8614;48.522;9.206;2023-07-31T13:46:11;26.10;99.90
16995;DHT22;8614;48.522;9.206;2023-07-31T13:48:38;26.00;99.90
16995;DHT22;8614;48.522;9.206;2023-07-31T13:51:04;25.60;99.90
16995;DHT22;8614;48.522;9.206;2023-07-31T13:53:31;25.40;99.90
16995;DHT22;8614;48.522;9.206;2023-07-31T13:55:59;25.10;99.90
16995;DHT22;8614;48.522;9.206;2023-07-31T13:58:26;24.80;99.90
16995;DHT22;8614;48.522;9.206;2023-07-31T14:00:53;24.60;99.90
16995;DHT22;8614;48.522;9.206;2023-07-31T14:03:20;24.40;99.90
16995;DHT22;8614;48.522;9.206;2023-07-31T14:05:47;24.30;99.90
16995;DHT22;8614;48.522;9.206;2023-07-31T14:08:13;24.30;99.90
16995;DHT22;8614;48.522;9.206;2023-07-31T14:10:40;24.30;99.90
16995;DHT22;8614;48.522;9.206;2023-07-31T14:13:08;24.10;99.90
16995;DHT22;8614;48.522;9.206;2023-07-31T14:15:35;24.10;99.90
16995;DHT22;8614;48.522;9.206;2023-07-31T14:18:02;24.00;99.90
16995;DHT22;8614;48.522;9.206;2023-07-31T14:20:30;23.90;99.90
16995;DHT22;8614;48.522;9.206;2023-07-31T14:22:56;23.70;99.90
16995;DHT22;8614;48.522;9.206;2023-07-31T14:25:24;23.70;99.90
16995;DHT22;8614;48.522;9.206;2023-07-31T14:27:51;23.60;99.90
16995;DHT22;8614;48.522;9.206;2023-07-31T14:30:19;23.50;99.90
16995;DHT22;8614;48.522;9.206;2023-07-31T14:32:46;23.40;99.90
16995;DHT22;8614;48.522;9.206;2023-07-31T14:35:13;23.30;99.90
16995;DHT22;8614;48.522;9.206;2023-07-31T14:37:41;23.30;99.90
16995;DHT22;8614;48.522;9.206;2023-07-31T14:40:09;23.20;99.90
16995;DHT22;8614;48.522;9.206;2023-07-31T14:42:37;23.20;99.90
16995;DHT22;8614;48.522;9.206;2023-07-31T14:45:05;23.20;99.90
16995;DHT22;8614;48.522;9.206;2023-07-31T14:47:33;23.20;99.90
16995;DHT22;8614;48.522;9.206;2023-07-31T14:50:50;23.20;99.90
16995;DHT22;8614;48.522;9.206;2023-07-31T14:52:55;23.10;99.90
16995;DHT22;8614;48.522;9.206;2023-07-31T14:55:22;23.10;99.90
16995;DHT22;8614;48.522;9.206;2023-07-31T14:57:51;23.10;99.90
16995;DHT22;8614;48.522;9.206;2023-07-31T15:00:18;23.20;99.90
16995;DHT22;8614;48.522;9.206;2023-07-31T15:02:47;23.20;99.90
16995;DHT22;8614;48.522;9.206;2023-07-31T15:05:14;23.10;99.90
16995;DHT22;8614;48.522;9.206;2023-07-31T15:07:41;23.10;99.90
16995;DHT22;8614;48.522;9.206;2023-07-31T15:10:08;23.10;99.90
16995;DHT22;8614;48.522;9.206;2023-07-31T15:12:35;23.10;99.90
16995;DHT22;8614;48.522;9.206;2023-07-31T15:15:04;23.00;99.90
16995;DHT22;8614;48.522;9.206;2023-07-31T15:17:34;23.00;99.90
16995;DHT22;8614;48.522;9.206;2023-07-31T15:20:10;23.00;99.90
16995;DHT22;8614;48.522;9.206;2023-07-31T15:22:44;22.90;99.90
16995;DHT22;8614;48.522;9.206;2023-07-31T15:25:14;22.90;99.90
16995;DHT22;8614;48.522;9.206;2023-07-31T15:27:41;22.90;99.90
16995;DHT22;8614;48.522;9.206;2023-07-31T15:30:09;22.90;99.90
16995;DHT22;8614;48.522;9.206;2023-07-31T15:32:37;22.80;99.90
16995;DHT22;8614;48.522;9.206;2023-07-31T15:35:05;22.90;99.90
16995;DHT22;8614;48.522;9.206;2023-07-31T15:37:33;22.90;99.90
16995;DHT22;8614;48.522;9.206;2023-07-31T15:40:00;23.00;99.90
16995;DHT22;8614;48.522;9.206;2023-07-31T15:42:26;23.00;99.90
16995;DHT22;8614;48.522;9.206;2023-07-31T15:44:53;23.10;99.90
16995;DHT22;8614;48.522;9.206;2023-07-31T15:47:20;23.30;99.90
16995;DHT22;8614;48.522;9.206;2023-07-31T15:49:47;23.40;99.90